Time;durP1;ratioP1;P1;durP2;ratioP2;P2;SDS_P1;SDS_P2;PMS_P1;PMS_P2;Temp;Humidity;BMP_temperature;BMP_pressure;BME280_temperature;BME280_humidity;BME280_pressure;Samples;Min_cycle;Max_cycle;Signal;HPM_P1;HPM_P2
2024/01/26 00:00:23;;;;;;;121.60;113.30;;;26.80;99.90;;;;;;5096349;28;20012;-69
2024/01/26 00:02:50;;;;;;;117.05;108.97;;;26.80;99.90;;;;;;5096055;28;20016;-68
2024/01/26 00:05:16;;;;;;;121.95;113.30;;;26.80;99.90;;;;;;5114488;28;20515;-68
2024/01/26 00:07:43;;;;;;;121.55;112.50;;;26.80;99.90;;;;;;5116502;28;20364;-68
2024/01/26 00:10:10;;;;;;;122.90;114.45;;;26.80;99.90;;;;;;5116242;28;20019;-69
2024/01/26 00:12:36;;;;;;;109.55;101.68;;;26.80;99.90;;;;;;5120867;27;20122;-70
2024/01/26 00:15:03;;;;;;;122.38;112.97;;;26.90;99.90;;;;;;5136919;27;20023;-68
2024/01/26 00:17:29;;;;;;;122.55;113.82;;;26.90;99.90;;;;;;5136353;27;20011;-68
2024/01/26 00:19:56;;;;;;;118.57;109.95;;;26.90;99.90;;;;;;5136419;27;20543;-68
2024/01/26 00:22:22;;;;;;;115.78;107.03;;;27.00;99.90;;;;;;5136855;27;20438;-68
2024/01/26 00:24:49;;;;;;;114.10;106.57;;;27.00;99.90;;;;;;5134848;27;20030;-69
2024/01/26 00:27:15;;;;;;;113.70;105.90;;;27.00;99.90;;;;;;5131421;27;20494;-69
2024/01/26 00:29:42;;;;;;;113.75;105.80;;;26.90;99.90;;;;;;5135851;27;20019;-70
2024/01/26 00:32:09;;;;;;;110.45;102.60;;;26.90;99.90;;;;;;5136121;27;20019;-69
2024/01/26 00:34:36;;;;;;;118.53;110.18;;;26.90;99.90;;;;;;5135639;27;20031;-68
2024/01/26 00:37:03;;;;;;;118.88;110.38;;;26.90;99.90;;;;;;5134829;27;20058;-69
2024/01/26 00:39:29;;;;;;;121.38;112.65;;;26.90;99.90;;;;;;5134428;27;20027;-69
2024/01/26 00:41:56;;;;;;;117.32;108.90;;;26.90;99.90;;;;;;5136235;27;20019;-69
2024/01/26 00:44:22;;;;;;;112.50;104.95;;;26.90;99.90;;;;;;5136190;27;20473;-69
2024/01/26 00:46:49;;;;;;;105.60;98.20;;;26.90;99.90;;;;;;5136421;27;20129;-69
2024/01/26 00:49:15;;;;;;;117.13;108.95;;;26.90;99.90;;;;;;5136113;27;20056;-69
2024/01/26 00:51:42;;;;;;;114.95;107.20;;;26.90;99.90;;;;;;5136034;27;20479;-68
2024/01/26 00:54:09;;;;;;;116.65;108.88;;;27.00;99.90;;;;;;5135875;27;20479;-68
2024/01/26 00:56:35;;;;;;;115.97;108.10;;;26.90;99.90;;;;;;5136079;27;20015;-69
2024/01/26 00:59:01;;;;;;;117.32;108.93;;;26.90;99.90;;;;;;5135850;27;20042;-69
2024/01/26 01:01:28;;;;;;;122.03;113.60;;;26.90;99.90;;;;;;5136034;27;20019;-69
2024/01/26 01:03:54;;;;;;;105.88;99.00;;;27.00;99.90;;;;;;5133459;27;20047;-69
2024/01/26 01:06:21;;;;;;;107.88;100.18;;;27.00;99.90;;;;;;5131924;27;20054;-68
2024/01/26 01:08:48;;;;;;;105.45;98.30;;;27.00;99.90;;;;;;5135776;27;20513;-69
2024/01/26 01:11:14;;;;;;;103.70;96.72;;;27.00;99.90;;;;;;5135636;27;20066;-69
2024/01/26 01:13:43;;;;;;;101.68;94.82;;;27.00;99.90;;;;;;5135206;27;20102;-68
2024/01/26 01:16:12;;;;;;;104.75;97.50;;;27.00;99.90;;;;;;5135308;27;20041;-68
2024/01/26 01:18:39;;;;;;;102.20;94.63;;;27.00;99.90;;;;;;5135468;27;20019;-68
2024/01/26 01:21:06;;;;;;;93.72;87.43;;;27.10;99.90;;;;;;5135394;27;20023;-69
2024/01/26 01:23:32;;;;;;;107.47;99.70;;;27.00;99.90;;;;;;5135550;27;20072;-69
2024/01/26 01:25:59;;;;;;;108.28;100.75;;;27.00;99.90;;;;;;5128994;27;20075;-69
2024/01/26 01:28:25;;;;;;;91.75;85.30;;;27.10;99.90;;;;;;5135340;27;20027;-69
2024/01/26 01:30:52;;;;;;;86.95;81.07;;;27.00;99.90;;;;;;5135408;27;20027;-68
2024/01/26 01:33:18;;;;;;;104.35;97.40;;;27.00;99.90;;;;;;5135249;27;20099;-69
2024/01/26 01:35:45;;;;;;;91.63;84.97;;;27.10;99.90;;;;;;5135181;27;20463;-68
2024/01/26 01:38:11;;;;;;;90.80;84.40;;;27.10;99.90;;;;;;5121537;27;20055;-68
2024/01/26 01:40:39;;;;;;;106.22;98.63;;;27.10;99.90;;;;;;5116342;27;20507;-69
2024/01/26 01:43:05;;;;;;;98.82;91.72;;;27.10;99.90;;;;;;5114487;28;20024;-69
2024/01/26 01:45:32;;;;;;;74.32;69.05;;;27.20;99.90;;;;;;5132689;27;20027;-68
2024/01/26 01:47:58;;;;;;;84.47;78.43;;;27.20;99.90;;;;;;5134439;27;20011;-68
2024/01/26 01:50:25;;;;;;;89.60;83.63;;;27.20;99.90;;;;;;5113366;27;20356;-68
2024/01/26 01:52:55;;;;;;;85.43;79.57;;;27.20;99.90;;;;;;5134838;27;20428;-68
2024/01/26 01:55:23;;;;;;;75.10;69.72;;;27.30;99.90;;;;;;5134457;27;20113;-68
2024/01/26 01:57:52;;;;;;;78.30;72.95;;;27.30;99.90;;;;;;5134779;27;20064;-68
2024/01/26 02:00:19;;;;;;;96.28;89.07;;;27.30;99.90;;;;;;5134502;27;20023;-68
2024/01/26 02:02:48;;;;;;;93.40;86.72;;;27.40;99.90;;;;;;5135230;27;20046;-68
2024/01/26 02:05:16;;;;;;;118.38;110.22;;;27.50;99.90;;;;;;5134212;27;20034;-69
2024/01/26 02:07:47;;;;;;;107.43;99.75;;;27.50;99.90;;;;;;5134599;27;20023;-68
2024/01/26 02:10:13;;;;;;;72.18;66.65;;;27.60;99.90;;;;;;5134695;27;20051;-68
2024/01/26 02:12:40;;;;;;;107.55;99.25;;;27.50;99.90;;;;;;5134453;27;20034;-68
2024/01/26 02:15:08;;;;;;;121.10;111.45;;;27.60;99.90;;;;;;5134457;27;20118;-69
2024/01/26 02:17:36;;;;;;;101.20;93.50;;;27.60;99.90;;;;;;5134649;27;20061;-68
2024/01/26 02:20:04;;;;;;;89.10;82.43;;;27.70;99.90;;;;;;5134341;27;20030;-69
2024/01/26 02:22:31;;;;;;;129.18;119.97;;;27.70;99.90;;;;;;5133658;27;20035;-68
2024/01/26 02:24:57;;;;;;;100.70;92.80;;;27.70;99.90;;;;;;5129743;27;20491;-69
2024/01/26 02:27:24;;;;;;;101.90;93.43;;;27.70;99.90;;;;;;5134177;27;20113;-69
2024/01/26 02:29:50;;;;;;;93.10;85.45;;;27.70;99.90;;;;;;5134598;27;20023;-69
2024/01/26 02:32:17;;;;;;;91.82;84.25;;;27.70;99.90;;;;;;5134484;27;20027;-68
2024/01/26 02:34:44;;;;;;;92.45;85.50;;;27.80;99.90;;;;;;5133572;27;20020;-68
2024/01/26 02:37:10;;;;;;;80.72;73.80;;;27.80;99.90;;;;;;5134244;28;20111;-68
2024/01/26 02:39:38;;;;;;;94.82;87.18;;;27.90;99.90;;;;;;5134233;28;20030;-69
2024/01/26 02:42:05;;;;;;;93.03;85.55;;;28.00;99.90;;;;;;5132344;28;20041;-68
2024/01/26 02:44:33;;;;;;;92.88;85.82;;;28.00;99.90;;;;;;5126302;28;20083;-68
2024/01/26 02:47:00;;;;;;;106.30;98.00;;;28.00;99.90;;;;;;5134378;28;20023;-68
2024/01/26 02:49:28;;;;;;;102.22;94.22;;;28.00;99.90;;;;;;5133958;28;20084;-68
2024/01/26 02:51:54;;;;;;;84.20;77.72;;;28.10;99.90;;;;;;5134307;28;20023;-68
2024/01/26 02:54:21;;;;;;;74.22;68.55;;;28.10;99.90;;;;;;5133885;28;20040;-69
2024/01/26 02:56:47;;;;;;;78.05;72.45;;;28.10;99.90;;;;;;5134013;28;20030;-69
2024/01/26 02:59:14;;;;;;;53.20;48.90;;;28.10;99.90;;;;;;5133548;28;20379;-68
2024/01/26 03:01:41;;;;;;;77.20;72.20;;;28.10;99.90;;;;;;5134121;28;20084;-68
2024/01/26 03:04:07;;;;;;;59.63;55.33;;;28.20;99.90;;;;;;5133668;28;20031;-68
2024/01/26 03:06:34;;;;;;;64.10;59.53;;;28.40;99.90;;;;;;5134269;28;20452;-68
2024/01/26 03:09:00;;;;;;;62.08;57.72;;;28.50;99.90;;;;;;5134444;28;20030;-69
2024/01/26 03:11:37;;;;;;;58.35;54.63;;;28.60;99.90;;;;;;5133968;28;20023;-68
2024/01/26 03:14:05;;;;;;;55.67;51.60;;;28.60;99.90;;;;;;5133669;28;20043;-68
2024/01/26 03:16:33;;;;;;;34.55;32.08;;;28.60;99.90;;;;;;5134196;27;20386;-69
2024/01/26 03:19:00;;;;;;;31.02;28.27;;;28.70;99.90;;;;;;5137417;27;20023;-68
2024/01/26 03:21:26;;;;;;;29.10;26.70;;;28.80;99.90;;;;;;5138088;27;20031;-68
2024/01/26 03:23:53;;;;;;;35.38;32.17;;;28.80;99.90;;;;;;5136188;27;20101;-68
2024/01/26 03:26:19;;;;;;;36.95;33.85;;;28.90;99.90;;;;;;5137742;27;20043;-68
2024/01/26 03:28:46;;;;;;;34.03;31.05;;;28.90;99.90;;;;;;5137573;27;20102;-68
2024/01/26 03:31:13;;;;;;;27.67;25.40;;;28.90;99.90;;;;;;5137642;27;20493;-68
2024/01/26 03:33:41;;;;;;;28.95;26.55;;;29.00;99.90;;;;;;5137333;27;20495;-69
2024/01/26 03:36:07;;;;;;;25.95;23.80;;;29.00;99.90;;;;;;5136048;27;20023;-68
2024/01/26 03:38:34;;;;;;;26.02;23.70;;;29.10;99.90;;;;;;5115347;27;20027;-67
2024/01/26 03:41:01;;;;;;;26.05;23.38;;;29.20;99.90;;;;;;5136457;27;20472;-68
2024/01/26 03:43:27;;;;;;;25.80;23.65;;;29.20;99.90;;;;;;5137350;27;20030;-69
2024/01/26 03:45:54;;;;;;;25.00;22.42;;;29.20;99.90;;;;;;5137367;27;20363;-69
2024/01/26 03:48:20;;;;;;;25.92;23.67;;;29.20;99.90;;;;;;5137177;27;20035;-68
2024/01/26 03:50:47;;;;;;;27.00;24.35;;;29.20;99.90;;;;;;5137461;27;20023;-68
2024/01/26 03:53:13;;;;;;;23.30;21.30;;;29.20;99.90;;;;;;5137380;27;20068;-66
2024/01/26 03:55:40;;;;;;;24.02;22.02;;;29.20;99.90;;;;;;5136820;27;20050;-64
2024/01/26 03:58:06;;;;;;;24.67;22.40;;;29.30;99.90;;;;;;5137190;27;20026;-67
2024/01/26 04:00:34;;;;;;;28.35;25.67;;;29.20;99.90;;;;;;5136884;27;20524;-66
2024/01/26 04:03:00;;;;;;;24.05;21.92;;;29.20;99.90;;;;;;5137031;27;20463;-67
2024/01/26 04:05:27;;;;;;;22.08;20.20;;;29.20;99.90;;;;;;5137234;27;20049;-68
2024/01/26 04:07:53;;;;;;;18.98;17.35;;;29.20;99.90;;;;;;5137098;27;20051;-67
2024/01/26 04:10:20;;;;;;;22.55;20.60;;;29.20;99.90;;;;;;5136764;27;20030;-67
2024/01/26 04:12:46;;;;;;;20.38;18.55;;;29.20;99.90;;;;;;5137098;27;20514;-67
2024/01/26 04:15:13;;;;;;;23.92;21.75;;;29.20;99.90;;;;;;5131010;27;20031;-67
2024/01/26 04:17:39;;;;;;;23.92;21.42;;;29.30;99.90;;;;;;5136165;27;20018;-67
2024/01/26 04:20:07;;;;;;;23.55;21.05;;;29.20;99.90;;;;;;5132600;27;20026;-65
2024/01/26 04:22:33;;;;;;;23.27;20.90;;;29.30;99.90;;;;;;5137143;27;20367;-67
2024/01/26 04:25:00;;;;;;;22.08;19.92;;;29.30;99.90;;;;;;5137423;27;20023;-67
2024/01/26 04:27:26;;;;;;;19.73;17.83;;;29.40;99.90;;;;;;5136940;27;20140;-66
2024/01/26 04:29:53;;;;;;;23.83;20.88;;;29.50;99.90;;;;;;5135803;27;20027;-66
2024/01/26 04:32:19;;;;;;;18.27;16.33;;;29.60;99.90;;;;;;5135139;27;20164;-67
2024/01/26 04:34:46;;;;;;;17.25;15.10;;;29.60;99.90;;;;;;5136021;27;20024;-67
2024/01/26 04:37:12;;;;;;;18.88;17.17;;;29.60;99.90;;;;;;5136622;27;20014;-67
2024/01/26 04:39:41;;;;;;;22.20;19.98;;;29.70;99.90;;;;;;5136314;27;20029;-67
2024/01/26 04:42:08;;;;;;;45.55;35.90;;;29.70;99.90;;;;;;5135834;27;20383;-67
2024/01/26 04:44:36;;;;;;;85.47;66.20;;;29.80;99.90;;;;;;5136368;27;20023;-67
2024/01/26 04:47:02;;;;;;;117.10;87.15;;;29.80;99.90;;;;;;5136159;27;20391;-65
2024/01/26 04:49:29;;;;;;;33.22;28.77;;;29.90;99.90;;;;;;5135943;27;20506;-67
2024/01/26 04:51:56;;;;;;;17.58;15.75;;;29.90;99.90;;;;;;5133390;27;20019;-67
2024/01/26 04:54:22;;;;;;;17.05;15.32;;;30.00;99.90;;;;;;5136552;27;20040;-67
2024/01/26 04:56:49;;;;;;;19.00;17.20;;;30.10;99.90;;;;;;5136013;27;20007;-66
2024/01/26 04:59:16;;;;;;;21.27;19.08;;;30.10;99.90;;;;;;5133152;27;20064;-67
2024/01/26 05:01:42;;;;;;;17.38;15.52;;;30.10;99.90;;;;;;5135313;27;20030;-66
2024/01/26 05:04:09;;;;;;;15.20;13.75;;;30.20;99.90;;;;;;5135532;27;20041;-67
2024/01/26 05:06:36;;;;;;;12.90;11.68;;;30.30;99.90;;;;;;5135495;27;20098;-68
2024/01/26 05:09:02;;;;;;;16.10;14.57;;;30.30;99.90;;;;;;5135903;27;20404;-67
2024/01/26 05:11:29;;;;;;;13.55;12.07;;;30.50;99.90;;;;;;5135100;27;20042;-67
2024/01/26 05:13:56;;;;;;;13.27;10.57;;;30.50;99.90;;;;;;5135295;27;20046;-67
2024/01/26 05:16:22;;;;;;;13.18;11.88;;;30.50;99.90;;;;;;5135514;27;20015;-66
2024/01/26 05:18:49;;;;;;;13.30;11.27;;;30.40;99.90;;;;;;5135060;27;20042;-67
2024/01/26 05:21:15;;;;;;;21.20;19.60;;;30.40;99.90;;;;;;5135974;27;20027;-66
2024/01/26 05:23:42;;;;;;;19.80;17.48;;;30.40;99.90;;;;;;5135005;27;20482;-66
2024/01/26 05:26:08;;;;;;;18.77;17.30;;;30.30;99.90;;;;;;5135352;27;20108;-63
2024/01/26 05:28:36;;;;;;;12.85;11.18;;;30.30;99.90;;;;;;5135767;27;20023;-67
2024/01/26 05:31:03;;;;;;;12.40;10.15;;;30.40;99.90;;;;;;5135752;27;20055;-67
2024/01/26 05:33:30;;;;;;;12.18;10.35;;;30.40;99.90;;;;;;5136411;27;20026;-66
2024/01/26 05:35:56;;;;;;;11.73;10.57;;;30.40;99.90;;;;;;5134527;27;20015;-66
2024/01/26 05:38:23;;;;;;;12.20;11.10;;;30.30;99.90;;;;;;5112449;27;20463;-67
2024/01/26 05:40:49;;;;;;;21.73;14.23;;;30.30;99.90;;;;;;5117251;27;20110;-66
2024/01/26 05:43:16;;;;;;;17.35;15.63;;;30.30;99.90;;;;;;5136343;27;20102;-67
2024/01/26 05:45:42;;;;;;;22.80;20.80;;;30.20;99.90;;;;;;5136312;27;20071;-67
2024/01/26 05:48:08;;;;;;;25.92;23.55;;;30.20;99.90;;;;;;5136184;27;20020;-69
2024/01/26 05:50:37;;;;;;;28.77;26.70;;;30.20;99.90;;;;;;5135715;27;20498;-67
2024/01/26 05:53:03;;;;;;;32.40;29.50;;;30.20;99.90;;;;;;5136035;27;20035;-67
2024/01/26 05:55:30;;;;;;;33.05;30.42;;;30.20;99.90;;;;;;5133023;27;20051;-65
2024/01/26 05:57:56;;;;;;;39.17;36.08;;;30.20;99.90;;;;;;5131936;27;20011;-66
2024/01/26 06:00:23;;;;;;;38.55;35.90;;;30.20;99.90;;;;;;5131916;27;20007;-64
2024/01/26 06:02:50;;;;;;;27.23;25.08;;;30.20;99.90;;;;;;5126340;27;20034;-66
2024/01/26 06:05:16;;;;;;;27.08;25.00;;;30.30;99.90;;;;;;5133248;27;20023;-64
2024/01/26 06:07:43;;;;;;;34.22;30.90;;;30.10;99.90;;;;;;5131844;27;20011;-64
2024/01/26 06:10:10;;;;;;;52.17;46.33;;;30.00;99.90;;;;;;5134707;27;20015;-64
2024/01/26 06:12:40;;;;;;;65.13;56.10;;;29.90;99.90;;;;;;5129113;27;20040;-65
2024/01/26 06:15:09;;;;;;;28.17;25.42;;;29.80;99.90;;;;;;5111191;28;20044;-65
2024/01/26 06:17:35;;;;;;;75.50;66.43;;;29.80;99.90;;;;;;5113812;28;20011;-64
2024/01/26 06:20:05;;;;;;;41.58;37.70;;;29.60;99.90;;;;;;5113345;28;20486;-65
2024/01/26 06:22:32;;;;;;;26.83;24.63;;;29.60;99.90;;;;;;5113598;28;20012;-65
2024/01/26 06:24:59;;;;;;;28.50;26.27;;;29.50;99.90;;;;;;5114104;28;20036;-66
2024/01/26 06:27:26;;;;;;;28.58;26.38;;;29.50;99.90;;;;;;5113521;28;20192;-65
2024/01/26 06:29:56;;;;;;;28.92;26.73;;;29.50;99.90;;;;;;5111123;28;20030;-69
2024/01/26 06:32:22;;;;;;;36.90;34.17;;;29.50;99.90;;;;;;5113295;28;20024;-67
2024/01/26 06:34:49;;;;;;;96.57;79.40;;;29.50;99.90;;;;;;5113807;28;20011;-70
2024/01/26 06:37:15;;;;;;;62.03;53.80;;;29.50;99.90;;;;;;5114269;28;20027;-71
2024/01/26 06:39:41;;;;;;;98.53;79.75;;;29.50;99.90;;;;;;5113907;28;20387;-68
2024/01/26 06:42:08;;;;;;;59.63;53.50;;;29.40;99.90;;;;;;5113922;28;20018;-69
2024/01/26 06:44:35;;;;;;;46.05;41.55;;;29.20;99.90;;;;;;5111839;28;20040;-69
2024/01/26 06:47:01;;;;;;;46.83;43.00;;;29.00;99.90;;;;;;5113351;28;20020;-69
2024/01/26 06:49:28;;;;;;;40.53;37.65;;;29.00;99.90;;;;;;5113964;28;20110;-68
2024/01/26 06:51:54;;;;;;;41.17;37.80;;;28.90;99.90;;;;;;5117706;28;20456;-69
2024/01/26 06:54:21;;;;;;;35.67;32.80;;;28.90;99.90;;;;;;5117760;28;20471;-69
2024/01/26 06:56:47;;;;;;;42.60;38.53;;;28.90;99.90;;;;;;5117719;28;20422;-72
2024/01/26 06:59:14;;;;;;;41.40;38.08;;;28.90;99.90;;;;;;5117746;28;20050;-69
2024/01/26 07:01:40;;;;;;;45.55;42.03;;;28.80;99.90;;;;;;5117412;28;20019;-69
2024/01/26 07:04:07;;;;;;;39.47;36.35;;;28.90;99.90;;;;;;5117171;28;20566;-68
2024/01/26 07:06:33;;;;;;;50.10;46.28;;;28.80;99.90;;;;;;5113315;28;20422;-68
2024/01/26 07:09:00;;;;;;;63.42;58.85;;;28.80;99.90;;;;;;5117042;28;20044;-68
2024/01/26 07:11:26;;;;;;;43.05;39.55;;;28.90;99.90;;;;;;5115156;28;20020;-68
2024/01/26 07:13:53;;;;;;;53.78;49.78;;;28.90;99.90;;;;;;5114005;28;20056;-68
2024/01/26 07:16:19;;;;;;;44.53;41.08;;;28.90;99.90;;;;;;5116087;28;20015;-68
2024/01/26 07:18:46;;;;;;;53.22;49.22;;;28.90;99.90;;;;;;5115949;28;20107;-68
2024/01/26 07:21:18;;;;;;;43.40;40.25;;;28.90;99.90;;;;;;5114696;28;20023;-67
2024/01/26 07:23:44;;;;;;;73.47;67.97;;;28.80;99.90;;;;;;5116202;28;20409;-68
2024/01/26 07:26:17;;;;;;;70.32;64.85;;;28.70;99.90;;;;;;5115355;28;20042;-68
2024/01/26 07:28:43;;;;;;;78.18;72.97;;;28.70;99.90;;;;;;5115274;28;20080;-68
2024/01/26 07:31:09;;;;;;;78.57;73.60;;;28.80;99.90;;;;;;5115911;28;20023;-69
2024/01/26 07:33:36;;;;;;;70.85;66.25;;;28.70;99.90;;;;;;5114555;28;20028;-68
2024/01/26 07:36:03;;;;;;;50.83;47.42;;;28.70;99.90;;;;;;5115243;28;20016;-69
2024/01/26 07:38:29;;;;;;;110.57;103.18;;;28.60;99.90;;;;;;5112203;28;20073;-68
2024/01/26 07:40:57;;;;;;;91.47;85.78;;;28.70;99.90;;;;;;5114954;28;20011;-68
2024/01/26 07:43:24;;;;;;;83.70;78.22;;;28.70;99.90;;;;;;5114068;28;20479;-67
2024/01/26 07:45:51;;;;;;;81.00;75.65;;;28.60;99.90;;;;;;5113350;28;20035;-69
2024/01/26 07:48:19;;;;;;;70.70;66.20;;;28.60;99.90;;;;;;5116024;28;20072;-68
2024/01/26 07:50:45;;;;;;;79.80;74.47;;;28.60;99.90;;;;;;5116502;28;20099;-69
2024/01/26 07:53:12;;;;;;;75.35;70.45;;;28.50;99.90;;;;;;5115846;28;20024;-68
2024/01/26 07:55:40;;;;;;;64.18;60.00;;;28.50;99.90;;;;;;5116085;28;20020;-68
2024/01/26 07:58:06;;;;;;;61.33;57.03;;;28.40;99.90;;;;;;5116057;28;20494;-68
2024/01/26 08:00:33;;;;;;;70.93;66.28;;;28.40;99.90;;;;;;5115751;28;20495;-68
2024/01/26 08:03:00;;;;;;;66.75;62.25;;;28.40;99.90;;;;;;5114607;28;20024;-67
2024/01/26 08:05:26;;;;;;;62.17;58.08;;;28.40;99.90;;;;;;5115041;28;20028;-67
2024/01/26 08:07:53;;;;;;;61.05;56.92;;;28.40;99.90;;;;;;5115059;28;20028;-67
2024/01/26 08:10:19;;;;;;;59.65;55.83;;;28.30;99.90;;;;;;5114817;28;20481;-67
2024/01/26 08:12:45;;;;;;;77.68;72.38;;;28.40;99.90;;;;;;5114801;28;20048;-67
2024/01/26 08:15:12;;;;;;;74.35;69.50;;;28.50;99.90;;;;;;5115037;28;20081;-68
2024/01/26 08:17:39;;;;;;;79.03;73.32;;;28.50;99.90;;;;;;5115348;28;20016;-68
2024/01/26 08:20:06;;;;;;;80.32;75.13;;;28.50;99.90;;;;;;5114813;28;20018;-68
2024/01/26 08:22:32;;;;;;;76.05;71.18;;;28.50;99.90;;;;;;5114955;28;20027;-68
2024/01/26 08:25:00;;;;;;;80.22;74.57;;;28.60;99.90;;;;;;5114825;28;20422;-67
2024/01/26 08:27:27;;;;;;;81.13;75.63;;;28.60;99.90;;;;;;5114166;28;20103;-68
2024/01/26 09:31:43;;;;;;;113.50;104.32;;;28.10;99.90;;;;;;5088717;27;22043;-69
2024/01/26 09:34:09;;;;;;;233.93;212.85;;;28.10;99.90;;;;;;5069960;28;20019;-69
2024/01/26 09:36:36;;;;;;;155.75;144.18;;;28.30;99.90;;;;;;5070248;28;20450;-71
2024/01/26 09:39:03;;;;;;;127.85;119.03;;;28.40;99.90;;;;;;5069050;28;20021;-69
2024/01/26 09:41:30;;;;;;;89.85;83.40;;;28.50;99.90;;;;;;5070182;28;20080;-69
2024/01/26 09:43:56;;;;;;;129.57;120.88;;;28.60;99.90;;;;;;5069801;28;20469;-69
2024/01/26 09:46:23;;;;;;;80.22;74.68;;;28.70;99.90;;;;;;5069980;28;20110;-69
2024/01/26 09:48:55;;;;;;;75.63;70.15;;;28.70;99.90;;;;;;5069993;28;20477;-70
2024/01/26 09:51:22;;;;;;;97.72;91.10;;;28.70;99.90;;;;;;5069292;28;20060;-69
2024/01/26 09:53:51;;;;;;;78.18;72.68;;;28.80;99.90;;;;;;5068966;28;20091;-68
2024/01/26 09:56:19;;;;;;;90.65;83.50;;;28.80;99.90;;;;;;5064819;28;20355;-68
2024/01/26 09:58:46;;;;;;;119.10;107.47;;;28.90;99.90;;;;;;5070503;28;20405;-69
2024/01/26 10:01:18;;;;;;;180.27;158.98;;;28.90;99.90;;;;;;5070383;28;20104;-68
2024/01/26 10:03:47;;;;;;;116.25;105.22;;;29.00;99.90;;;;;;5069886;28;20016;-68
2024/01/26 10:06:14;;;;;;;139.10;125.13;;;29.00;99.90;;;;;;5067154;28;20052;-69
2024/01/26 10:08:41;;;;;;;148.52;132.10;;;29.00;99.90;;;;;;5069015;28;20063;-69
2024/01/26 10:11:09;;;;;;;118.68;107.60;;;29.10;99.90;;;;;;5068136;28;20098;-68
2024/01/26 10:13:35;;;;;;;88.05;80.47;;;29.10;99.90;;;;;;5067594;28;20027;-69
2024/01/26 10:16:07;;;;;;;85.97;77.60;;;29.10;99.90;;;;;;5069058;28;20033;-69
2024/01/26 10:18:43;;;;;;;101.15;90.35;;;29.10;99.90;;;;;;5069290;28;20435;-69
2024/01/26 10:21:12;;;;;;;93.45;83.57;;;29.10;99.90;;;;;;5068117;28;20063;-69
2024/01/26 10:23:39;;;;;;;88.70;78.18;;;29.10;99.90;;;;;;5068989;28;20028;-67
2024/01/26 10:26:05;;;;;;;143.70;118.55;;;29.20;99.90;;;;;;5069008;28;20021;-68
2024/01/26 10:28:32;;;;;;;108.00;94.95;;;29.20;99.90;;;;;;5069048;28;20381;-67
2024/01/26 10:31:00;;;;;;;172.90;136.90;;;29.20;99.90;;;;;;5064496;28;20044;-68
2024/01/26 10:33:29;;;;;;;89.20;80.68;;;29.10;99.90;;;;;;5069535;28;20066;-68
2024/01/26 10:36:01;;;;;;;88.13;78.88;;;29.10;99.90;;;;;;5066892;28;20266;-67
2024/01/26 10:38:30;;;;;;;77.40;70.95;;;29.20;99.90;;;;;;5068357;28;20033;-69
2024/01/26 10:41:04;;;;;;;70.03;63.75;;;29.10;99.90;;;;;;5064612;28;20052;-69
2024/01/26 10:43:32;;;;;;;51.25;46.60;;;29.10;99.90;;;;;;5055891;28;20134;-70
2024/01/26 10:46:02;;;;;;;50.60;45.80;;;29.00;99.90;;;;;;5055476;28;20036;-68
2024/01/26 10:48:30;;;;;;;56.85;51.25;;;29.00;99.90;;;;;;5055791;28;20025;-67
2024/01/26 10:50:57;;;;;;;65.57;59.60;;;29.00;99.90;;;;;;5052912;28;20033;-67
2024/01/26 10:53:24;;;;;;;151.23;128.23;;;29.00;99.90;;;;;;5055462;28;20021;-67
2024/01/26 10:55:51;;;;;;;149.57;132.52;;;29.00;99.90;;;;;;5055116;28;20037;-66
2024/01/26 10:58:18;;;;;;;170.38;148.23;;;29.00;99.90;;;;;;5055298;28;20028;-67
2024/01/26 11:00:45;;;;;;;98.20;88.40;;;29.00;99.90;;;;;;5055558;28;20033;-66
2024/01/26 11:03:12;;;;;;;83.80;76.57;;;28.90;99.90;;;;;;5053230;28;20086;-66
2024/01/26 11:05:39;;;;;;;59.60;53.90;;;28.90;99.90;;;;;;5054837;28;20023;-66
2024/01/26 11:08:18;;;;;;;80.78;73.65;;;28.80;99.90;;;;;;5055090;28;20484;-67
2024/01/26 11:10:46;;;;;;;84.57;77.45;;;28.80;99.90;;;;;;5053168;28;20037;-68
2024/01/26 11:13:16;;;;;;;78.90;72.55;;;28.80;99.90;;;;;;5055054;28;20025;-68
2024/01/26 11:15:43;;;;;;;69.95;63.65;;;28.70;99.90;;;;;;5052776;28;20029;-67
2024/01/26 11:18:24;;;;;;;94.55;87.22;;;28.80;99.90;;;;;;5054913;28;20025;-66
2024/01/26 11:20:52;;;;;;;87.30;80.57;;;28.70;99.90;;;;;;5054613;28;20028;-66
2024/01/26 11:23:18;;;;;;;104.25;96.18;;;28.70;99.90;;;;;;5054663;28;20266;-68
2024/01/26 11:25:47;;;;;;;133.27;123.07;;;28.70;99.90;;;;;;5055018;28;20021;-67
2024/01/26 11:28:16;;;;;;;116.50;107.72;;;28.60;99.90;;;;;;5054634;28;20029;-67
2024/01/26 11:30:53;;;;;;;158.52;147.88;;;28.70;99.90;;;;;;5052429;28;20405;-66
2024/01/26 11:33:22;;;;;;;147.00;136.82;;;28.60;99.90;;;;;;5049948;28;20025;-67
2024/01/26 11:35:49;;;;;;;150.65;140.57;;;28.60;99.90;;;;;;5053105;28;20500;-67
2024/01/26 11:38:20;;;;;;;142.38;132.25;;;28.60;99.90;;;;;;5053305;28;20029;-67
2024/01/26 11:40:47;;;;;;;140.25;130.38;;;28.60;99.90;;;;;;5054526;28;20045;-67
2024/01/26 11:43:14;;;;;;;145.88;135.90;;;28.60;99.90;;;;;;5054184;28;20029;-66
2024/01/26 11:45:45;;;;;;;133.45;124.22;;;28.60;99.90;;;;;;5053797;28;20025;-65
2024/01/26 11:48:13;;;;;;;145.07;134.35;;;28.60;99.90;;;;;;5054008;28;20033;-65
2024/01/26 11:50:43;;;;;;;131.63;122.25;;;28.60;99.90;;;;;;5049984;28;20029;-66
2024/01/26 11:53:10;;;;;;;146.35;136.30;;;28.50;99.90;;;;;;5051944;28;20053;-66
2024/01/26 11:55:40;;;;;;;148.43;138.63;;;28.50;99.90;;;;;;5053321;28;20329;-65
2024/01/26 11:58:09;;;;;;;194.82;178.77;;;28.50;99.90;;;;;;5053962;28;20021;-66
2024/01/26 12:00:39;;;;;;;279.95;192.68;;;28.50;99.90;;;;;;5053718;28;20036;-67
2024/01/26 12:03:08;;;;;;;162.38;149.88;;;28.50;99.90;;;;;;5053023;28;20040;-65
2024/01/26 12:05:36;;;;;;;167.13;155.27;;;28.50;99.90;;;;;;5051740;28;20029;-66
2024/01/26 12:08:05;;;;;;;180.50;166.32;;;28.50;99.90;;;;;;5053949;28;20035;-67
2024/01/26 12:10:40;;;;;;;160.27;148.55;;;28.40;99.90;;;;;;5053527;28;20033;-66
2024/01/26 12:13:07;;;;;;;152.02;141.68;;;28.40;99.90;;;;;;5053782;28;20025;-67
2024/01/26 12:15:38;;;;;;;152.27;141.77;;;28.40;99.90;;;;;;5054163;28;20052;-67
2024/01/26 12:18:12;;;;;;;128.52;119.88;;;28.40;99.90;;;;;;5054097;28;20024;-70
2024/01/26 12:20:39;;;;;;;128.93;119.93;;;28.40;99.90;;;;;;5052029;28;20493;-68
2024/01/26 12:23:14;;;;;;;132.23;122.70;;;28.40;99.90;;;;;;5053392;28;20107;-70
2024/01/26 12:25:40;;;;;;;107.30;99.45;;;28.30;99.90;;;;;;5052200;28;20021;-67
2024/01/26 12:28:07;;;;;;;124.13;113.15;;;28.30;99.90;;;;;;5052169;28;20378;-66
2024/01/26 12:30:34;;;;;;;117.32;106.68;;;28.30;99.90;;;;;;5052547;28;20045;-66
2024/01/26 12:33:07;;;;;;;101.15;92.68;;;28.30;99.90;;;;;;5052411;28;20025;-68
2024/01/26 12:35:34;;;;;;;114.03;104.20;;;28.30;99.90;;;;;;5051333;28;20521;-67
2024/01/26 12:38:01;;;;;;;132.52;121.25;;;28.40;99.90;;;;;;5052026;28;20025;-67
2024/01/26 12:40:28;;;;;;;99.57;91.65;;;28.30;99.90;;;;;;5053810;28;20032;-67
2024/01/26 12:42:54;;;;;;;106.38;97.40;;;28.30;99.90;;;;;;5053804;28;20052;-68
2024/01/26 12:45:21;;;;;;;80.50;74.10;;;28.30;99.90;;;;;;5052625;28;20037;-68
2024/01/26 12:47:47;;;;;;;94.80;87.28;;;28.30;99.90;;;;;;5053771;28;20033;-68
2024/01/26 12:50:14;;;;;;;95.38;87.97;;;28.30;99.90;;;;;;5047603;28;20036;-68
2024/01/26 12:52:41;;;;;;;91.32;84.07;;;28.30;99.90;;;;;;5044413;28;20017;-68
2024/01/26 12:55:07;;;;;;;98.70;90.82;;;28.30;99.90;;;;;;5049613;28;20028;-68
2024/01/26 12:57:34;;;;;;;91.43;84.18;;;28.20;99.90;;;;;;5053701;28;20040;-68
2024/01/26 13:00:00;;;;;;;90.10;83.22;;;28.20;99.90;;;;;;5053457;28;20035;-68
2024/01/26 13:02:27;;;;;;;91.45;83.70;;;28.20;99.90;;;;;;5053566;28;20070;-68
2024/01/26 13:04:53;;;;;;;90.65;83.35;;;28.20;99.90;;;;;;5053399;28;20021;-68
2024/01/26 13:07:22;;;;;;;95.35;87.35;;;28.20;99.90;;;;;;5053385;28;20441;-68
2024/01/26 13:09:49;;;;;;;106.40;98.25;;;28.10;99.90;;;;;;5053265;28;20072;-67
2024/01/26 13:12:17;;;;;;;97.05;88.75;;;28.20;99.90;;;;;;5053434;28;20028;-67
2024/01/26 13:14:46;;;;;;;113.15;104.25;;;28.10;99.90;;;;;;5053343;28;20102;-68
2024/01/26 13:17:13;;;;;;;107.78;99.40;;;28.10;99.90;;;;;;5053330;28;20035;-68
2024/01/26 13:19:40;;;;;;;103.40;95.25;;;28.10;99.90;;;;;;5053352;28;20051;-67
2024/01/26 13:22:06;;;;;;;95.68;87.88;;;28.10;99.90;;;;;;5053312;28;20079;-67